Time;durP1;ratioP1;P1;durP2;ratioP2;P2;SDS_P1;SDS_P2;PMS_P1;PMS_P2;Temp;Humidity;BMP_temperature;BMP_pressure;BME280_temperature;BME280_humidity;BME280_pressure;Samples;Min_cycle;Max_cycle;Signal;HPM_P1;HPM_P2
2022/01/08 00:01:17;;;;;;;1.38;0.57;;;26.40;99.90;;;;;;5013831;28;20467;-70
2022/01/08 00:03:45;;;;;;;0.70;0.43;;;26.60;99.90;;;;;;5013806;28;20113;-70
2022/01/08 00:06:13;;;;;;;0.75;0.50;;;26.70;99.90;;;;;;5013694;28;20450;-70
2022/01/08 00:08:40;;;;;;;0.40;0.40;;;26.70;99.90;;;;;;5013478;28;20430;-70
2022/01/08 00:11:10;;;;;;;0.85;0.40;;;26.80;99.90;;;;;;5013559;28;20479;-70
2022/01/08 00:13:39;;;;;;;0.70;0.30;;;26.90;99.90;;;;;;5013559;28;20061;-70
2022/01/08 00:16:08;;;;;;;0.77;0.32;;;27.00;99.90;;;;;;5013785;28;20418;-70
2022/01/08 00:18:35;;;;;;;0.77;0.60;;;27.20;99.90;;;;;;5013780;28;20036;-70
2022/01/08 00:21:03;;;;;;;0.50;0.30;;;27.50;99.90;;;;;;5013591;28;20033;-70
2022/01/08 00:23:31;;;;;;;0.30;0.22;;;27.90;99.90;;;;;;5013582;28;20030;-70
2022/01/08 00:25:59;;;;;;;3.40;0.40;;;28.10;99.90;;;;;;5013283;28;20092;-70
2022/01/08 00:28:27;;;;;;;0.93;0.28;;;28.20;99.90;;;;;;5013159;28;20045;-70
2022/01/08 00:30:55;;;;;;;1.17;0.40;;;28.10;99.90;;;;;;5013703;28;20053;-70
2022/01/08 00:33:23;;;;;;;2.25;1.10;;;28.00;99.90;;;;;;5017537;28;20105;-70
2022/01/08 00:35:50;;;;;;;2.58;0.47;;;27.90;99.90;;;;;;5017317;28;20022;-70
2022/01/08 00:38:18;;;;;;;1.00;0.57;;;28.10;99.90;;;;;;5017548;28;20038;-70
2022/01/08 00:40:46;;;;;;;0.85;0.20;;;28.30;99.90;;;;;;5017412;28;20486;-70
2022/01/08 00:43:13;;;;;;;2.13;1.10;;;27.90;99.90;;;;;;5017311;28;20026;-70
2022/01/08 00:45:41;;;;;;;2.65;1.50;;;28.00;99.90;;;;;;5017476;28;20022;-70
2022/01/08 00:48:09;;;;;;;15.98;7.72;;;28.20;99.90;;;;;;5017004;28;20390;-70
2022/01/08 00:50:37;;;;;;;1.92;1.02;;;28.40;99.90;;;;;;5017136;28;20030;-70
2022/01/08 00:53:04;;;;;;;3.67;0.60;;;28.70;99.90;;;;;;5017352;28;20080;-70
2022/01/08 00:55:32;;;;;;;1.02;0.40;;;28.70;99.90;;;;;;5017034;28;20049;-70
2022/01/08 00:58:00;;;;;;;0.95;0.32;;;28.70;99.90;;;;;;5017078;28;20467;-70
2022/01/08 01:00:27;;;;;;;1.25;0.35;;;28.90;99.90;;;;;;5017249;28;20076;-70
2022/01/08 01:02:55;;;;;;;3.20;0.90;;;28.90;99.90;;;;;;5016986;28;20022;-70
2022/01/08 01:05:23;;;;;;;0.57;0.40;;;28.70;99.90;;;;;;5016992;28;20021;-70
2022/01/08 01:07:51;;;;;;;0.57;0.40;;;28.50;99.90;;;;;;5016760;28;20033;-70
2022/01/08 01:10:18;;;;;;;0.75;0.47;;;28.30;99.90;;;;;;5016811;28;20034;-70
2022/01/08 01:12:46;;;;;;;1.85;0.50;;;28.50;99.90;;;;;;5017029;28;20049;-70
2022/01/08 01:15:16;;;;;;;1.08;0.43;;;28.70;99.90;;;;;;5016689;28;20037;-70
2022/01/08 01:17:47;;;;;;;0.65;0.43;;;28.90;99.90;;;;;;5016797;28;20026;-70
2022/01/08 01:20:20;;;;;;;6.28;1.30;;;28.80;99.90;;;;;;5016804;28;20022;-70
2022/01/08 01:25:30;;;;;;;0.70;0.40;;;29.20;99.90;;;;;;5016631;28;20103;-70
2022/01/08 01:28:05;;;;;;;0.60;0.28;;;29.20;99.90;;;;;;5016163;28;20120;-70
2022/01/08 01:47:02;;;;;;;1.40;0.50;;;29.50;99.90;;;;;;5016031;28;20548;-71
2022/01/08 01:49:38;;;;;;;0.88;0.30;;;29.70;99.90;;;;;;5016333;28;20021;-71
2022/01/08 01:52:08;;;;;;;1.88;0.40;;;29.70;99.90;;;;;;5016080;28;20037;-71
2022/01/08 01:54:37;;;;;;;1.38;0.30;;;29.70;99.90;;;;;;5016599;28;20414;-71
2022/01/08 01:57:06;;;;;;;0.75;0.40;;;29.90;99.90;;;;;;5016186;28;20036;-70
2022/01/08 01:59:35;;;;;;;0.47;0.30;;;30.10;99.90;;;;;;5015950;28;20021;-71
2022/01/08 02:02:03;;;;;;;0.52;0.40;;;30.00;99.90;;;;;;5015994;28;20036;-71
2022/01/08 02:04:31;;;;;;;0.30;0.30;;;30.00;99.90;;;;;;5016165;28;20033;-71
2022/01/08 02:06:59;;;;;;;0.50;0.30;;;30.10;99.90;;;;;;5015769;28;20034;-71
2022/01/08 02:09:27;;;;;;;0.77;0.40;;;30.50;99.90;;;;;;5015549;28;20117;-71
2022/01/08 02:12:10;;;;;;;1.08;0.40;;;30.80;99.90;;;;;;5015736;28;20022;-71
2022/01/08 02:14:39;;;;;;;1.20;0.82;;;30.70;99.90;;;;;;5015786;28;20033;-71
2022/01/08 02:17:08;;;;;;;1.05;0.50;;;30.00;99.90;;;;;;5015667;28;20077;-70
2022/01/08 02:19:37;;;;;;;0.65;0.40;;;29.40;99.90;;;;;;5016075;28;20080;-70
2022/01/08 02:22:09;;;;;;;0.63;0.50;;;29.30;99.90;;;;;;5015579;28;20037;-71
2022/01/08 02:24:37;;;;;;;0.82;0.50;;;29.60;99.90;;;;;;5015493;28;20037;-71
2022/01/08 02:27:05;;;;;;;1.27;0.60;;;29.80;99.90;;;;;;5015215;28;20046;-71
2022/01/08 02:29:33;;;;;;;1.83;0.60;;;29.80;99.90;;;;;;5015443;28;20026;-71
2022/01/08 02:32:07;;;;;;;12.10;2.33;;;29.60;99.90;;;;;;5015273;28;20096;-71
2022/01/08 02:34:37;;;;;;;4.82;1.50;;;29.40;99.90;;;;;;5015283;28;20022;-71
2022/01/08 02:37:05;;;;;;;2.35;1.13;;;29.20;99.90;;;;;;5015505;28;20037;-70
2022/01/08 02:39:39;;;;;;;1.75;0.65;;;29.40;99.90;;;;;;5015348;28;20025;-71
2022/01/08 02:42:11;;;;;;;9.43;1.08;;;29.40;99.90;;;;;;5015417;28;20022;-71
2022/01/08 02:44:42;;;;;;;2.42;0.82;;;29.60;99.90;;;;;;5015213;28;20050;-71
2022/01/08 02:47:13;;;;;;;0.40;0.30;;;29.80;99.90;;;;;;5015294;28;20022;-71
2022/01/08 02:49:40;;;;;;;0.57;0.45;;;30.10;99.90;;;;;;5015122;28;20056;-71
2022/01/08 02:52:08;;;;;;;2.25;0.65;;;30.30;99.90;;;;;;5015091;28;20026;-71
2022/01/08 02:54:36;;;;;;;0.60;0.38;;;30.40;99.90;;;;;;5014204;28;20022;-71
2022/01/08 02:57:04;;;;;;;1.00;0.40;;;30.20;99.90;;;;;;5014913;28;20028;-71
2022/01/08 02:59:33;;;;;;;1.02;0.50;;;30.30;99.90;;;;;;5014902;28;20018;-71
2022/01/08 03:02:01;;;;;;;0.85;0.50;;;29.80;99.90;;;;;;5014852;28;20018;-71
2022/01/08 03:04:28;;;;;;;0.30;0.30;;;29.70;99.90;;;;;;5013381;28;20030;-71
2022/01/08 03:06:56;;;;;;;0.30;0.20;;;29.80;99.90;;;;;;5013415;28;20352;-71
2022/01/08 03:09:25;;;;;;;0.93;0.40;;;29.70;99.90;;;;;;5014884;28;20022;-71
2022/01/08 03:11:53;;;;;;;0.68;0.40;;;29.80;99.90;;;;;;5014726;28;20022;-71
2022/01/08 03:14:21;;;;;;;0.63;0.40;;;29.80;99.90;;;;;;5014758;28;20026;-71
2022/01/08 03:16:48;;;;;;;3.20;0.77;;;29.80;99.90;;;;;;5014532;28;20032;-71
2022/01/08 03:19:16;;;;;;;3.17;0.70;;;29.70;99.90;;;;;;5014596;28;20026;-71
2022/01/08 03:21:51;;;;;;;0.30;0.30;;;29.40;99.90;;;;;;5014935;28;20014;-71
2022/01/08 03:24:26;;;;;;;;;;;29.40;99.90;;;;;;5014765;28;20427;-72
2022/01/08 03:26:54;;;;;;;1.63;0.80;;;29.30;99.90;;;;;;5014175;28;20366;-69
2022/01/08 03:29:22;;;;;;;1.17;0.73;;;29.30;99.90;;;;;;5014393;28;20030;-72
2022/01/08 03:31:50;;;;;;;2.45;0.52;;;29.50;99.90;;;;;;5013843;28;20022;-70
2022/01/08 03:34:18;;;;;;;1.63;0.77;;;29.90;99.90;;;;;;5014343;28;20022;-70
2022/01/08 03:36:45;;;;;;;1.45;0.43;;;30.10;99.90;;;;;;5014409;28;20017;-70
2022/01/08 03:39:13;;;;;;;3.00;0.77;;;30.40;99.90;;;;;;5014168;28;20030;-70
2022/01/08 03:41:42;;;;;;;0.57;0.40;;;30.70;99.90;;;;;;5014050;28;20488;-71
2022/01/08 03:44:10;;;;;;;1.02;0.52;;;31.00;99.90;;;;;;5013961;28;20024;-71
2022/01/08 03:46:38;;;;;;;0.68;0.50;;;31.20;99.90;;;;;;5014042;28;20072;-71
2022/01/08 03:51:40;;;;;;;1.83;0.60;;;30.50;99.90;;;;;;5013921;28;20057;-71
2022/01/08 03:54:08;;;;;;;1.65;0.80;;;30.30;99.90;;;;;;5013884;28;20112;-71
2022/01/08 03:56:36;;;;;;;2.88;0.65;;;30.10;99.90;;;;;;5013923;28;20072;-70
2022/01/08 03:59:03;;;;;;;0.55;0.50;;;30.20;99.90;;;;;;5013977;28;20053;-70
2022/01/08 04:01:31;;;;;;;3.28;0.75;;;30.00;99.90;;;;;;5013869;28;20030;-70
2022/01/08 04:03:59;;;;;;;2.08;0.65;;;30.10;99.90;;;;;;5013673;28;20029;-70
2022/01/08 04:06:26;;;;;;;1.17;0.50;;;30.30;99.90;;;;;;5013607;28;20026;-70
2022/01/08 04:08:57;;;;;;;1.80;0.40;;;30.60;99.90;;;;;;5013743;28;20475;-70
2022/01/08 04:11:28;;;;;;;3.60;0.75;;;30.70;99.90;;;;;;5013878;28;20594;-70
2022/01/08 04:13:57;;;;;;;2.20;0.65;;;30.80;99.90;;;;;;5013585;28;20101;-71
2022/01/08 04:16:30;;;;;;;1.23;0.77;;;30.90;99.90;;;;;;5013577;28;20097;-71
2022/01/08 04:18:58;;;;;;;1.05;0.60;;;30.90;99.90;;;;;;5013569;28;20510;-71
2022/01/08 04:23:56;;;;;;;1.98;0.98;;;31.00;99.90;;;;;;5013658;28;20033;-71
2022/01/08 04:26:25;;;;;;;2.92;0.82;;;30.50;99.90;;;;;;5013425;28;20537;-71
2022/01/08 04:28:53;;;;;;;2.15;0.60;;;30.00;99.90;;;;;;5013475;28;20109;-71
2022/01/08 04:31:22;;;;;;;1.13;0.63;;;29.60;99.90;;;;;;5013553;28;20101;-71
2022/01/08 04:33:50;;;;;;;1.75;0.70;;;29.40;99.90;;;;;;5012158;28;20478;-71
2022/01/08 04:36:18;;;;;;;3.17;0.90;;;29.20;99.90;;;;;;5013545;28;20026;-71
2022/01/08 04:38:46;;;;;;;8.73;1.10;;;29.10;99.90;;;;;;5013571;28;20032;-71
2022/01/08 04:41:14;;;;;;;3.08;0.80;;;28.90;99.90;;;;;;5013372;28;20088;-71
2022/01/08 04:43:43;;;;;;;2.70;1.00;;;28.80;99.90;;;;;;5013297;28;20419;-71
2022/01/08 04:46:12;;;;;;;1.98;0.93;;;28.80;99.90;;;;;;5013226;28;20037;-71
2022/01/08 04:48:41;;;;;;;1.73;0.77;;;28.60;99.90;;;;;;5013148;28;20121;-71
2022/01/08 04:51:09;;;;;;;2.63;0.70;;;28.40;99.90;;;;;;5013379;28;20018;-74
2022/01/08 04:53:39;;;;;;;1.73;0.88;;;28.20;99.90;;;;;;5013313;28;20029;-72
2022/01/08 04:56:07;;;;;;;3.35;1.00;;;28.00;99.90;;;;;;5013432;28;20026;-71
2022/01/08 04:58:35;;;;;;;4.13;0.82;;;27.80;99.90;;;;;;5013320;28;20097;-72
2022/01/08 05:01:02;;;;;;;3.55;1.00;;;27.70;99.90;;;;;;5013505;28;20061;-71
2022/01/08 05:03:30;;;;;;;2.17;0.80;;;27.60;99.90;;;;;;5012978;28;20058;-72
2022/01/08 05:05:58;;;;;;;1.52;0.73;;;27.40;99.90;;;;;;5013353;28;20036;-72
2022/01/08 05:08:25;;;;;;;1.60;0.85;;;27.40;99.90;;;;;;5013202;28;20486;-73
2022/01/08 05:10:53;;;;;;;1.38;0.90;;;27.30;99.90;;;;;;5013334;28;20014;-72
2022/01/08 05:13:20;;;;;;;5.25;0.90;;;27.20;99.90;;;;;;5013150;28;20025;-72
2022/01/08 05:15:48;;;;;;;1.42;0.82;;;27.30;99.90;;;;;;5013061;28;20041;-72
2022/01/08 05:18:16;;;;;;;2.47;1.00;;;27.20;99.90;;;;;;5015155;28;20053;-72
2022/01/08 05:20:53;;;;;;;4.93;0.80;;;27.20;99.90;;;;;;5016834;28;20092;-72
2022/01/08 05:23:21;;;;;;;0.82;0.57;;;27.10;99.90;;;;;;5015448;28;20036;-72
2022/01/08 05:25:48;;;;;;;1.00;0.57;;;27.10;99.90;;;;;;5016361;28;20088;-71
2022/01/08 05:28:16;;;;;;;3.22;1.05;;;27.20;99.90;;;;;;5016544;28;20482;-73
2022/01/08 05:30:44;;;;;;;3.33;0.93;;;27.20;99.90;;;;;;5016502;28;20497;-73
2022/01/08 05:33:11;;;;;;;2.15;0.73;;;27.30;99.90;;;;;;5016528;28;20036;-70
2022/01/08 05:35:39;;;;;;;1.40;0.90;;;27.60;99.90;;;;;;5016550;28;20026;-71
2022/01/08 05:38:07;;;;;;;1.25;0.60;;;27.80;99.90;;;;;;5016302;28;20026;-71
2022/01/08 05:40:35;;;;;;;1.83;1.00;;;27.80;99.90;;;;;;5016263;28;20456;-74
2022/01/08 05:43:06;;;;;;;2.95;0.60;;;27.70;99.90;;;;;;5016276;28;20030;-71
2022/01/08 05:45:33;;;;;;;1.05;0.57;;;27.50;99.90;;;;;;5016255;28;20356;-71
2022/01/08 05:48:01;;;;;;;0.73;0.70;;;27.30;99.90;;;;;;5015970;28;20095;-73
2022/01/08 05:50:29;;;;;;;2.63;0.75;;;27.20;99.90;;;;;;5015992;28;20034;-71
2022/01/08 05:52:56;;;;;;;3.67;0.63;;;26.90;99.90;;;;;;5016086;28;20383;-72
2022/01/08 05:55:24;;;;;;;1.35;0.57;;;26.90;99.90;;;;;;5015753;28;20029;-71
2022/01/08 05:57:52;;;;;;;1.50;0.75;;;26.90;99.90;;;;;;5016068;28;20029;-71
2022/01/08 06:00:20;;;;;;;0.75;0.57;;;26.90;99.90;;;;;;5016148;28;20383;-72
2022/01/08 06:02:47;;;;;;;6.22;0.90;;;26.80;99.90;;;;;;5016139;28;20029;-71
2022/01/08 06:05:15;;;;;;;1.08;0.73;;;26.60;99.90;;;;;;5016006;28;20080;-71
2022/01/08 06:07:43;;;;;;;1.27;0.63;;;26.60;99.90;;;;;;5015626;28;20073;-70
2022/01/08 06:10:10;;;;;;;4.03;1.00;;;26.50;99.90;;;;;;5015930;28;20049;-71
2022/01/08 06:12:38;;;;;;;1.45;0.75;;;26.50;99.90;;;;;;5015862;28;20021;-72
2022/01/08 06:15:06;;;;;;;6.25;0.90;;;26.40;99.90;;;;;;5015902;28;20072;-71
2022/01/08 06:17:34;;;;;;;1.00;0.40;;;26.50;99.90;;;;;;5015651;28;20026;-71
2022/01/08 06:20:02;;;;;;;3.30;0.65;;;26.60;99.90;;;;;;5015891;28;20204;-72
2022/01/08 06:22:29;;;;;;;2.05;0.65;;;26.50;99.90;;;;;;5015634;28;20026;-72
2022/01/08 06:24:57;;;;;;;2.88;0.80;;;26.40;99.90;;;;;;5015646;28;20029;-71
2022/01/08 06:27:25;;;;;;;1.75;0.75;;;26.40;99.90;;;;;;5015235;28;20042;-72
2022/01/08 06:29:55;;;;;;;5.97;0.50;;;26.20;99.90;;;;;;5014420;28;20014;-71
2022/01/08 06:32:23;;;;;;;2.00;0.60;;;26.00;99.90;;;;;;5015469;28;20386;-71
2022/01/08 06:34:51;;;;;;;2.95;1.15;;;25.80;99.90;;;;;;5015362;28;20013;-72
2022/01/08 06:37:18;;;;;;;0.73;0.40;;;25.70;99.90;;;;;;5015433;28;20029;-71
2022/01/08 06:39:48;;;;;;;2.50;0.70;;;25.60;99.90;;;;;;5015111;28;20045;-71
2022/01/08 06:42:16;;;;;;;2.25;1.10;;;25.40;99.90;;;;;;5015141;28;20057;-71
2022/01/08 06:44:44;;;;;;;5.00;0.47;;;25.30;99.90;;;;;;5015162;28;20045;-72
2022/01/08 06:47:12;;;;;;;1.17;0.65;;;25.20;99.90;;;;;;5014998;28;20025;-72
2022/01/08 06:49:39;;;;;;;2.15;0.85;;;25.10;99.90;;;;;;5015029;28;20065;-71
2022/01/08 06:52:07;;;;;;;1.27;0.80;;;25.10;99.90;;;;;;5015134;28;20380;-71
2022/01/08 06:54:35;;;;;;;3.70;0.80;;;25.00;99.90;;;;;;5015108;28;20026;-72
2022/01/08 06:57:03;;;;;;;0.82;0.52;;;25.00;99.90;;;;;;5015146;28;20028;-73
2022/01/08 06:59:30;;;;;;;2.05;0.68;;;24.90;99.90;;;;;;5014841;28;20410;-70
2022/01/08 07:01:58;;;;;;;1.15;0.47;;;24.70;99.90;;;;;;5014873;28;20022;-75
2022/01/08 07:04:26;;;;;;;3.30;0.75;;;24.70;99.90;;;;;;5014870;28;20022;-72
2022/01/08 07:06:53;;;;;;;0.73;0.50;;;24.60;99.90;;;;;;5014563;28;20475;-72
2022/01/08 07:09:21;;;;;;;4.18;0.75;;;24.60;99.90;;;;;;5014660;28;20042;-71
2022/01/08 07:11:49;;;;;;;1.05;0.60;;;24.40;99.90;;;;;;5014814;28;20028;-71
2022/01/08 07:14:17;;;;;;;1.17;0.52;;;24.10;99.90;;;;;;5014547;28;20029;-70
2022/01/08 07:16:46;;;;;;;1.70;0.50;;;24.00;99.90;;;;;;5014449;28;20026;-70
2022/01/08 07:19:13;;;;;;;1.38;0.60;;;23.80;99.90;;;;;;5014604;28;20029;-71
2022/01/08 07:21:41;;;;;;;2.95;0.60;;;23.80;99.90;;;;;;5014518;28;20394;-71
2022/01/08 07:24:09;;;;;;;9.45;2.17;;;23.80;99.90;;;;;;5014554;28;20393;-71
2022/01/08 07:26:36;;;;;;;9.82;2.53;;;23.90;99.90;;;;;;5014183;28;20042;-74
2022/01/08 07:29:04;;;;;;;13.20;2.67;;;23.90;99.90;;;;;;5014369;28;20080;-75
2022/01/08 07:31:32;;;;;;;9.23;2.03;;;23.90;99.90;;;;;;5014379;28;20099;-73
2022/01/08 07:33:59;;;;;;;5.03;1.42;;;23.70;99.90;;;;;;5013940;28;20221;-73
2022/01/08 07:36:27;;;;;;;3.25;1.50;;;23.10;99.90;;;;;;5014340;28;20021;-72
2022/01/08 07:38:55;;;;;;;8.13;1.13;;;22.70;99.90;;;;;;5012807;28;20029;-72
2022/01/08 07:41:23;;;;;;;2.60;0.90;;;22.30;99.90;;;;;;5013744;28;20430;-72
2022/01/08 07:43:50;;;;;;;5.68;1.20;;;22.10;99.90;;;;;;5013994;28;20435;-72
2022/01/08 07:46:18;;;;;;;2.67;1.15;;;22.20;99.90;;;;;;5014774;28;20104;-72
2022/01/08 07:48:45;;;;;;;2.75;1.05;;;22.40;99.90;;;;;;5013909;28;20095;-71
2022/01/08 07:51:13;;;;;;;2.55;1.00;;;22.70;99.90;;;;;;5014052;28;20057;-72
2022/01/08 07:53:41;;;;;;;2.83;0.90;;;23.00;99.90;;;;;;5014067;28;20112;-72
2022/01/08 07:56:09;;;;;;;1.63;0.90;;;23.00;99.90;;;;;;5013851;28;20030;-72
2022/01/08 07:58:36;;;;;;;4.97;0.95;;;23.00;99.90;;;;;;5013938;28;20026;-72
2022/01/08 08:01:04;;;;;;;2.33;1.45;;;22.80;99.90;;;;;;5013872;28;20048;-72
2022/01/08 08:03:32;;;;;;;2.15;0.73;;;22.80;99.90;;;;;;5013679;28;20076;-72
2022/01/08 08:06:00;;;;;;;1.33;0.60;;;22.60;99.90;;;;;;5013780;28;20050;-71
2022/01/08 08:08:28;;;;;;;0.98;0.73;;;22.50;99.90;;;;;;5013713;28;20030;-71
2022/01/08 08:10:55;;;;;;;2.65;1.15;;;22.60;99.90;;;;;;5013988;28;20023;-71
2022/01/08 08:13:23;;;;;;;1.60;1.00;;;22.40;99.90;;;;;;5013848;28;20375;-71
2022/01/08 08:15:51;;;;;;;3.42;1.40;;;22.20;99.90;;;;;;5013795;28;20026;-71
2022/01/08 08:18:19;;;;;;;3.17;1.08;;;22.20;99.90;;;;;;5013809;28;20054;-71
2022/01/08 08:20:46;;;;;;;2.63;0.93;;;22.20;99.90;;;;;;5013534;28;20032;-72
2022/01/08 08:23:14;;;;;;;3.40;1.73;;;22.20;99.90;;;;;;5013698;28;20025;-72
2022/01/08 08:25:42;;;;;;;3.47;1.55;;;22.20;99.90;;;;;;5012206;28;20382;-71
2022/01/08 08:28:09;;;;;;;1.38;0.73;;;22.20;99.90;;;;;;5013270;28;20046;-71
2022/01/08 08:30:37;;;;;;;2.85;0.95;;;22.20;99.90;;;;;;5013488;28;20418;-71
2022/01/08 08:33:05;;;;;;;2.03;0.90;;;22.30;99.90;;;;;;5013453;28;20026;-71
2022/01/08 08:35:34;;;;;;;3.35;1.30;;;22.20;99.90;;;;;;5013406;28;20022;-72
2022/01/08 08:38:02;;;;;;;3.22;1.38;;;22.20;99.90;;;;;;5013451;28;20025;-72
2022/01/08 08:40:30;;;;;;;1.85;0.88;;;22.20;99.90;;;;;;5013354;28;20030;-71
2022/01/08 08:42:58;;;;;;;5.03;1.50;;;22.20;99.90;;;;;;5013538;28;20022;-72
2022/01/08 08:45:25;;;;;;;7.13;1.50;;;22.10;99.90;;;;;;5013519;28;20529;-72
2022/01/08 08:47:56;;;;;;;3.08;1.67;;;22.10;99.90;;;;;;5013140;28;20034;-72
2022/01/08 08:50:24;;;;;;;3.65;1.52;;;22.10;99.90;;;;;;5013408;28;20072;-71
2022/01/08 08:52:55;;;;;;;4.22;1.27;;;22.10;99.90;;;;;;5014858;28;20053;-71
2022/01/08 08:55:23;;;;;;;3.78;1.23;;;22.10;99.90;;;;;;5017335;28;20050;-72
2022/01/08 08:57:51;;;;;;;3.38;1.58;;;22.10;99.90;;;;;;5017116;28;20056;-71
2022/01/08 09:00:19;;;;;;;3.30;1.15;;;22.00;99.90;;;;;;5015803;28;20053;-71
2022/01/08 09:02:49;;;;;;;2.97;1.50;;;22.00;99.90;;;;;;5016953;28;20022;-72
2022/01/08 09:05:17;;;;;;;4.03;1.45;;;22.00;99.90;;;;;;5016897;28;20080;-72
2022/01/08 09:07:45;;;;;;;3.58;1.52;;;21.90;99.90;;;;;;5016849;28;20398;-72
2022/01/08 09:10:13;;;;;;;5.75;1.38;;;21.90;99.90;;;;;;5016985;28;20022;-72
2022/01/08 09:12:42;;;;;;;2.38;1.40;;;21.90;99.90;;;;;;4986366;28;20072;-72
2022/01/08 09:15:11;;;;;;;5.53;1.50;;;21.80;99.90;;;;;;4993809;28;20057;-73
2022/01/08 09:17:40;;;;;;;8.18;1.90;;;21.80;99.90;;;;;;4995228;28;20034;-72
2022/01/08 09:20:09;;;;;;;3.60;1.70;;;21.80;99.90;;;;;;4995614;28;20594;-72
2022/01/08 09:22:37;;;;;;;9.60;1.95;;;21.80;99.90;;;;;;4987337;28;20037;-73
2022/01/08 09:25:07;;;;;;;15.98;2.65;;;21.80;99.90;;;;;;4992040;28;20021;-73
2022/01/08 09:27:35;;;;;;;9.52;2.38;;;21.60;99.90;;;;;;4994066;28;20042;-73
2022/01/08 09:30:03;;;;;;;4.45;2.13;;;21.60;99.90;;;;;;4995318;28;20011;-72
2022/01/08 09:32:31;;;;;;;7.43;2.13;;;21.50;99.90;;;;;;4995050;28;20479;-70
2022/01/08 09:35:00;;;;;;;5.10;1.92;;;21.50;99.90;;;;;;4993460;28;20026;-73
2022/01/08 09:37:27;;;;;;;7.03;1.40;;;21.40;99.90;;;;;;4995824;28;20018;-72
2022/01/08 09:39:55;;;;;;;3.55;1.55;;;21.30;99.90;;;;;;4995704;28;20026;-73
2022/01/08 09:42:23;;;;;;;4.05;1.67;;;21.30;99.90;;;;;;4995862;28;20026;-72
2022/01/08 09:44:52;;;;;;;6.88;1.73;;;21.20;99.90;;;;;;4995708;28;20026;-72
2022/01/08 09:47:20;;;;;;;3.03;1.10;;;21.20;99.90;;;;;;4995938;28;20491;-72
2022/01/08 09:49:48;;;;;;;5.70;1.85;;;21.10;99.90;;;;;;4995496;28;20034;-72
2022/01/08 09:52:16;;;;;;;3.92;1.45;;;21.10;99.90;;;;;;4995419;28;20022;-72
2022/01/08 09:54:47;;;;;;;6.63;1.75;;;21.10;99.90;;;;;;4995521;28;20066;-72
2022/01/08 09:57:15;;;;;;;2.67;1.73;;;21.10;99.90;;;;;;4994007;28;20491;-71
2022/01/08 09:59:43;;;;;;;4.97;1.15;;;21.10;99.90;;;;;;4995441;28;20057;-72
2022/01/08 10:02:11;;;;;;;9.38;1.83;;;21.00;99.90;;;;;;4994091;28;20021;-73
2022/01/08 10:04:41;;;;;;;3.05;0.93;;;21.00;99.90;;;;;;4994927;28;20050;-73
2022/01/08 10:07:28;;;;;;;5.25;1.38;;;21.00;99.90;;;;;;4992003;28;20019;-70
2022/01/08 10:10:07;;;;;;;2.65;1.05;;;21.00;99.90;;;;;;4994522;28;20026;-70
2022/01/08 10:12:44;;;;;;;4.50;1.20;;;20.90;99.90;;;;;;4993984;28;20032;-70
2022/01/08 10:18:01;;;;;;;4.97;1.20;;;21.00;99.90;;;;;;4994773;28;20088;-76
2022/01/08 10:20:40;;;;;;;1.63;0.82;;;21.00;99.90;;;;;;4993718;28;20551;-74
2022/01/08 10:23:17;;;;;;;5.13;1.20;;;21.00;99.90;;;;;;4994534;28;20037;-75
2022/01/08 10:25:59;;;;;;;9.25;1.67;;;20.90;99.90;;;;;;4995614;28;20104;-70
2022/01/08 10:28:52;;;;;;;4.93;1.33;;;20.90;99.90;;;;;;4994732;28;20034;-70
2022/01/08 10:31:41;;;;;;;3.03;0.90;;;21.00;99.90;;;;;;4994871;28;20058;-74
2022/01/08 10:34:20;;;;;;;3.80;1.05;;;21.00;99.90;;;;;;4994019;28;20102;-71
2022/01/08 10:37:04;;;;;;;7.10;1.75;;;20.90;99.90;;;;;;4992899;28;20026;-73
2022/01/08 10:39:33;;;;;;;5.50;0.95;;;21.00;99.90;;;;;;4992545;28;20033;-72
2022/01/08 10:42:12;;;;;;;5.20;0.95;;;21.00;99.90;;;;;;4992768;28;20479;-73
2022/01/08 10:44:41;;;;;;;2.67;0.82;;;21.00;99.90;;;;;;4993765;28;20422;-73
2022/01/08 10:47:13;;;;;;;2.95;0.70;;;21.00;99.90;;;;;;4975855;28;20559;-73
2022/01/08 10:49:45;;;;;;;5.35;0.90;;;21.00;99.90;;;;;;4973731;28;20061;-72
2022/01/08 10:52:21;;;;;;;5.20;1.02;;;21.10;99.90;;;;;;4974206;28;20038;-72
2022/01/08 10:54:55;;;;;;;8.18;2.13;;;21.00;99.90;;;;;;4974383;28;20018;-70
2022/01/08 10:57:39;;;;;;;4.18;0.88;;;21.10;99.90;;;;;;4973792;28;20023;-72
2022/01/08 11:00:13;;;;;;;4.13;0.93;;;21.00;99.90;;;;;;4976865;28;20121;-71
2022/01/08 11:02:44;;;;;;;4.85;1.35;;;21.00;99.90;;;;;;4973935;28;20532;-74
2022/01/08 11:05:13;;;;;;;5.28;1.65;;;21.00;99.90;;;;;;4973965;28;20033;-73
2022/01/08 11:07:41;;;;;;;3.50;0.90;;;20.90;99.90;;;;;;4973777;28;20038;-76
2022/01/08 11:10:16;;;;;;;2.35;0.88;;;21.00;99.90;;;;;;4973953;28;20496;-72
2022/01/08 11:12:46;;;;;;;1.42;1.00;;;21.10;99.90;;;;;;4973693;28;20380;-75
2022/01/08 11:15:34;;;;;;;9.98;1.05;;;21.10;99.90;;;;;;4973051;28;20031;-75
2022/01/08 11:18:03;;;;;;;4.15;0.65;;;21.20;99.90;;;;;;4973578;28;20070;-72
2022/01/08 11:20:33;;;;;;;3.03;0.93;;;21.10;99.90;;;;;;4973817;28;20027;-73
2022/01/08 11:23:03;;;;;;;2.85;1.13;;;21.20;99.90;;;;;;4981712;28;20101;-73
2022/01/08 11:28:18;;;;;;;;;;;21.20;99.90;;;;;;5073190;27;20477;-75
2022/01/08 11:30:50;;;;;;;3.80;1.17;;;21.10;99.90;;;;;;5069875;28;19909;-76
2022/01/08 11:33:29;;;;;;;2.85;1.00;;;21.10;99.90;;;;;;5069691;28;20103;-71
2022/01/08 11:35:58;;;;;;;1.70;0.80;;;21.00;99.90;;;;;;5068490;28;20474;-73
2022/01/08 11:38:27;;;;;;;2.67;0.82;;;20.90;99.90;;;;;;5067151;28;20090;-73
2022/01/08 11:40:57;;;;;;;7.20;0.68;;;20.90;99.90;;;;;;5067140;28;20325;-71
2022/01/08 11:43:28;;;;;;;6.10;0.98;;;20.90;99.90;;;;;;5067267;28;20044;-73
2022/01/08 11:46:03;;;;;;;1.65;0.85;;;20.90;99.90;;;;;;5061431;28;20021;-71
2022/01/08 11:48:43;;;;;;;8.35;0.98;;;20.90;99.90;;;;;;5067845;28;20481;-72
2022/01/08 11:51:37;;;;;;;2.55;1.00;;;20.90;99.90;;;;;;5070060;28;20063;-73
2022/01/08 11:54:06;;;;;;;3.65;1.25;;;20.80;99.90;;;;;;5068462;28;20029;-71
2022/01/08 11:56:40;;;;;;;12.70;1.17;;;20.80;99.90;;;;;;5069857;28;20027;-70
2022/01/08 11:59:18;;;;;;;4.65;1.60;;;20.80;99.90;;;;;;5070113;28;20031;-72
2022/01/08 12:02:04;;;;;;;4.50;1.17;;;20.80;99.90;;;;;;5070355;28;20040;-74
2022/01/08 12:04:33;;;;;;;13.07;1.77;;;20.70;99.90;;;;;;5069969;28;20497;-75
2022/01/08 12:07:26;;;;;;;8.93;1.80;;;20.70;99.90;;;;;;5069391;28;20556;-72
2022/01/08 12:10:16;;;;;;;3.83;1.48;;;20.60;99.90;;;;;;5070081;28;20067;-75
2022/01/08 12:13:01;;;;;;;4.82;1.65;;;20.60;99.90;;;;;;5069707;28;20028;-71
2022/01/08 12:15:41;;;;;;;3.03;2.00;;;20.60;99.90;;;;;;5069860;28;20029;-72
2022/01/08 12:18:15;;;;;;;6.45;2.72;;;20.60;99.90;;;;;;5069663;28;20028;-72
2022/01/08 12:20:53;;;;;;;5.72;2.22;;;20.70;99.90;;;;;;5068213;28;20032;-71
2022/01/08 12:23:25;;;;;;;9.48;2.53;;;20.60;99.90;;;;;;5069513;28;20484;-73
2022/01/08 12:25:53;;;;;;;4.65;2.13;;;20.70;99.90;;;;;;5069239;28;20040;-71
2022/01/08 12:28:45;;;;;;;6.20;2.25;;;20.70;99.90;;;;;;5069024;28;20054;-72
2022/01/08 12:31:23;;;;;;;7.88;2.70;;;20.70;99.90;;;;;;5069288;28;20063;-72
2022/01/08 12:34:27;;;;;;;5.90;2.80;;;20.70;99.90;;;;;;5069043;28;20025;-72
2022/01/08 12:37:06;;;;;;;10.07;2.83;;;20.80;99.90;;;;;;5069105;28;20090;-71
2022/01/08 12:39:48;;;;;;;10.80;1.85;;;20.80;99.90;;;;;;5056197;28;20099;-72
2022/01/08 12:42:37;;;;;;;5.55;2.17;;;20.80;99.90;;;;;;5055966;28;20370;-70
2022/01/08 12:45:29;;;;;;;5.85;2.45;;;20.80;99.90;;;;;;5056044;28;20396;-69
2022/01/08 12:48:08;;;;;;;6.05;2.80;;;20.80;99.90;;;;;;5055643;28;20037;-71
2022/01/08 12:50:43;;;;;;;7.88;1.92;;;20.80;99.90;;;;;;5056000;28;20021;-71
2022/01/08 12:53:25;;;;;;;10.93;3.40;;;20.70;99.90;;;;;;5047714;28;20187;-71
2022/01/08 12:55:56;;;;;;;8.65;3.83;;;20.80;99.90;;;;;;5036039;28;20479;-71
2022/01/08 12:58:25;;;;;;;7.25;3.63;;;20.70;99.90;;;;;;5044044;28;20029;-71
2022/01/08 13:01:03;;;;;;;9.10;3.10;;;20.80;99.90;;;;;;5055812;28;20067;-72
2022/01/08 13:03:37;;;;;;;11.60;3.85;;;20.80;99.90;;;;;;5055365;28;20025;-72
2022/01/08 13:06:14;;;;;;;10.20;3.78;;;20.80;99.90;;;;;;5055310;28;20040;-72
2022/01/08 13:08:44;;;;;;;7.95;3.35;;;20.90;99.90;;;;;;5055084;28;20048;-71
2022/01/08 13:11:20;;;;;;;11.68;4.35;;;20.90;99.90;;;;;;5055208;28;20070;-71
2022/01/08 13:13:53;;;;;;;13.10;3.85;;;20.80;99.90;;;;;;5055347;28;20056;-72
2022/01/08 13:16:27;;;;;;;6.78;3.55;;;20.90;99.90;;;;;;5055303;28;20017;-71
2022/01/08 13:18:59;;;;;;;11.38;3.30;;;20.80;99.90;;;;;;5055206;28;20036;-71
2022/01/08 13:21:33;;;;;;;8.50;3.42;;;20.80;99.90;;;;;;5055151;28;20100;-72
2022/01/08 13:24:21;;;;;;;15.50;4.07;;;20.80;99.90;;;;;;5055175;28;20378;-71
2022/01/08 13:27:03;;;;;;;11.52;4.50;;;20.80;99.90;;;;;;5054880;28;20391;-71
2022/01/08 13:29:41;;;;;;;13.10;4.13;;;20.80;99.90;;;;;;5055436;28;20021;-72
2022/01/08 13:32:12;;;;;;;7.30;3.50;;;20.80;99.90;;;;;;5055225;28;20032;-70
2022/01/08 13:34:45;;;;;;;20.88;4.35;;;20.80;99.90;;;;;;5055271;28;20048;-70